Time;durP1;ratioP1;P1;durP2;ratioP2;P2;SDS_P1;SDS_P2;PMS_P1;PMS_P2;Temp;Humidity;BMP_temperature;BMP_pressure;BME280_temperature;BME280_humidity;BME280_pressure;Samples;Min_cycle;Max_cycle;Signal;HPM_P1;HPM_P2
2023/07/01 00:00:49;;;;;;;3.28;2.00;;;;;;;24.51;48.83;100772.13;5058749;28;20476;-68
2023/07/01 00:03:14;;;;;;;6.65;2.20;;;;;;;23.92;50.04;100769.06;5068631;28;20443;-69
2023/07/01 00:05:40;;;;;;;4.55;2.72;;;;;;;23.18;52.27;100769.41;5069298;28;20060;-68
2023/07/01 00:08:05;;;;;;;5.43;1.80;;;;;;;23.45;52.74;100765.88;5053569;28;20119;-68
2023/07/01 00:10:31;;;;;;;3.20;2.03;;;;;;;23.51;52.33;100766.34;5058266;28;20491;-68
2023/07/01 00:12:56;;;;;;;4.70;2.05;;;;;;;24.31;50.04;100748.63;5050348;28;20116;-69
2023/07/01 00:15:21;;;;;;;6.03;2.30;;;;;;;24.49;48.29;100747.31;5069816;28;20032;-68
2023/07/01 00:17:48;;;;;;;6.22;2.47;;;;;;;23.53;51.16;100748.44;5068066;28;20062;-69
2023/07/01 00:20:13;;;;;;;3.25;2.13;;;;;;;22.23;55.42;100746.78;5051472;28;20039;-68
2023/07/01 00:22:38;;;;;;;5.53;2.45;;;;;;;22.20;56.71;100740.72;5069480;28;20036;-69
2023/07/01 00:25:04;;;;;;;5.55;2.92;;;;;;;24.67;49.26;100729.16;5051170;28;20055;-69
2023/07/01 00:27:30;;;;;;;3.85;2.30;;;;;;;22.57;54.88;100726.97;5053836;28;20511;-66
2023/07/01 00:29:55;;;;;;;5.25;2.60;;;;;;;23.37;54.14;100726.41;5085723;28;20403;-66
2023/07/01 00:32:20;;;;;;;6.40;2.42;;;;;;;23.38;54.40;100725.44;5074026;28;20066;-69
2023/07/01 00:34:46;;;;;;;7.43;2.88;;;;;;;23.49;54.09;100714.94;5074898;28;20020;-68
2023/07/01 00:37:11;;;;;;;2.95;2.45;;;;;;;22.57;56.54;100712.81;5064266;28;20029;-67
2023/07/01 00:39:37;;;;;;;5.60;3.28;;;;;;;23.83;53.64;100704.63;5052993;28;20021;-66
2023/07/01 00:42:02;;;;;;;9.20;3.30;;;;;;;23.59;53.60;100695.63;5054026;28;20017;-67
2023/07/01 00:44:28;;;;;;;4.70;2.85;;;;;;;22.70;57.29;100697.78;5054481;28;20024;-68
2023/07/01 00:46:54;;;;;;;5.43;3.03;;;;;;;23.28;54.59;100695.00;5052790;28;20475;-68
2023/07/01 00:49:19;;;;;;;5.75;3.20;;;;;;;23.76;54.06;100690.00;5053588;28;20058;-67
2023/07/01 00:51:44;;;;;;;6.68;3.42;;;;;;;24.46;52.02;100683.44;5052831;28;20104;-67
2023/07/01 00:54:10;;;;;;;8.35;3.25;;;;;;;24.05;52.99;100695.19;5071684;28;20039;-67
2023/07/01 00:56:35;;;;;;;9.23;3.78;;;;;;;23.54;54.50;100694.13;5071554;28;20420;-67
2023/07/01 00:59:01;;;;;;;8.07;3.53;;;;;;;23.18;55.79;100679.59;5052310;28;20905;-67
2023/07/01 01:01:34;;;;;;;6.50;3.30;;;;;;;22.86;56.39;100681.66;5053519;28;20040;-67
2023/07/01 01:04:00;;;;;;;;;;;;;;;23.42;54.87;100686.94;5053696;28;20047;-68
2023/07/01 01:06:36;;;;;;;9.13;3.40;;;;;;;23.51;54.50;100681.00;5053598;28;19916;-68
2023/07/01 01:09:15;;;;;;;5.10;3.13;;;;;;;23.30;54.52;100671.75;5053506;28;20120;-67
2023/07/01 01:11:45;;;;;;;6.90;3.53;;;;;;;23.71;52.96;100676.13;5053205;28;20394;-67
2023/07/01 01:14:13;;;;;;;5.80;3.67;;;;;;;23.54;54.36;100670.13;5052577;28;20039;-68
2023/07/01 01:16:42;;;;;;;8.32;3.70;;;;;;;24.43;51.92;100662.28;5053944;28;20108;-67
2023/07/01 01:19:19;;;;;;;9.27;3.70;;;;;;;23.59;53.77;100671.63;5071556;28;20419;-68
2023/07/01 01:21:53;;;;;;;4.05;3.65;;;;;;;24.36;51.81;100655.69;5053635;28;20025;-68
2023/07/01 01:24:21;;;;;;;6.57;3.78;;;;;;;23.81;52.55;100650.53;5071862;28;20532;-67
2023/07/01 01:26:51;;;;;;;6.10;3.20;;;;;;;23.55;54.42;100649.66;5071723;28;20085;-68
2023/07/01 01:29:17;;;;;;;6.18;3.47;;;;;;;22.44;58.84;100647.00;5072295;28;20027;-68
2023/07/01 01:31:42;;;;;;;6.35;3.28;;;;;;;23.85;55.13;100641.38;5068041;28;20020;-67
2023/07/01 01:34:08;;;;;;;3.75;3.38;;;;;;;24.06;54.69;100638.19;5071337;28;20027;-68
2023/07/01 01:36:36;;;;;;;7.00;4.60;;;;;;;23.76;55.32;100631.31;5055159;28;20024;-67
2023/07/01 01:39:05;;;;;;;8.15;4.88;;;;;;;23.74;55.23;100643.03;5052367;28;20040;-67
2023/07/01 01:41:46;;;;;;;7.95;4.32;;;;;;;24.76;52.63;100614.56;5088198;28;20086;-68
2023/07/01 01:44:20;;;;;;;7.10;4.22;;;;;;;24.28;53.88;100615.31;5088148;28;20152;-68
2023/07/01 01:46:46;;;;;;;9.10;4.18;;;;;;;24.68;52.29;100607.13;5053633;28;20388;-68
2023/07/01 01:49:13;;;;;;;6.32;4.53;;;;;;;23.73;55.90;100618.19;5069592;28;20042;-68
2023/07/01 01:51:40;;;;;;;6.55;3.83;;;;;;;23.46;56.96;100615.59;5071449;28;20024;-68
2023/07/01 01:54:08;;;;;;;7.97;4.00;;;;;;;23.32;58.23;100611.19;5066094;28;20027;-68
2023/07/01 01:56:34;;;;;;;8.50;4.35;;;;;;;23.63;57.00;100614.44;5074752;28;20051;-68
2023/07/01 01:59:00;;;;;;;5.38;4.50;;;;;;;23.69;56.74;100603.34;5079893;28;20115;-68
2023/07/01 02:01:26;;;;;;;5.70;4.22;;;;;;;23.99;56.31;100594.22;5060186;28;20031;-68
2023/07/01 02:03:51;;;;;;;7.22;4.30;;;;;;;22.98;60.63;100608.06;5071492;28;20028;-68
2023/07/01 02:06:17;;;;;;;7.80;4.55;;;;;;;23.12;59.34;100600.06;5060630;28;20028;-68
2023/07/01 02:08:42;;;;;;;5.97;4.05;;;;;;;23.28;60.12;100599.88;5070356;28;20027;-68
2023/07/01 02:11:08;;;;;;;10.10;4.82;;;;;;;23.40;60.30;100600.88;5061571;28;20023;-68
2023/07/01 02:13:33;;;;;;;8.63;4.20;;;;;;;23.84;57.80;100586.28;5072836;28;20118;-68
2023/07/01 02:15:58;;;;;;;7.18;4.25;;;;;;;24.31;55.21;100593.72;5072776;28;20385;-68
2023/07/01 02:18:24;;;;;;;4.60;4.18;;;;;;;23.62;57.64;100596.75;5069177;28;20386;-68
2023/07/01 02:20:49;;;;;;;7.47;4.38;;;;;;;24.35;53.99;100584.53;5052674;28;20064;-68
2023/07/01 02:23:15;;;;;;;16.42;4.82;;;;;;;23.85;56.39;100582.66;5069403;28;20463;-68
2023/07/01 02:25:41;;;;;;;12.40;4.13;;;;;;;24.07;55.84;100573.16;5052357;28;20036;-68
2023/07/01 02:28:07;;;;;;;6.13;4.97;;;;;;;24.33;55.03;100565.09;5066209;28;20403;-68
2023/07/01 02:30:34;;;;;;;8.10;4.07;;;;;;;23.77;56.83;100563.66;5051456;28;20085;-68
2023/07/01 02:32:59;;;;;;;4.18;3.75;;;;;;;23.35;57.47;100568.31;5069981;28;20020;-68
2023/07/01 02:35:25;;;;;;;4.45;3.72;;;;;;;23.66;57.35;100560.88;5058378;28;20074;-68
2023/07/01 02:37:50;;;;;;;11.82;4.13;;;;;;;24.00;55.77;100558.53;5069812;28;20063;-67
2023/07/01 02:40:16;;;;;;;6.97;4.30;;;;;;;24.80;52.72;100557.25;5062037;28;20051;-69
2023/07/01 02:42:41;;;;;;;7.57;4.40;;;;;;;24.05;54.08;100561.72;5070485;28;20110;-68
2023/07/01 02:45:07;;;;;;;6.63;3.78;;;;;;;24.70;53.48;100557.97;5068188;28;20024;-68
2023/07/01 02:47:32;;;;;;;14.88;4.70;;;;;;;24.35;53.23;100556.00;5051795;28;20146;-69
2023/07/01 02:49:58;;;;;;;7.75;3.90;;;;;;;24.45;53.65;100558.00;5067331;28;20085;-68
2023/07/01 02:52:23;;;;;;;5.47;3.75;;;;;;;24.98;52.81;100550.53;5054580;28;20530;-68
2023/07/01 02:54:49;;;;;;;11.50;4.45;;;;;;;23.34;57.96;100553.28;5052870;28;20548;-68
2023/07/01 02:57:14;;;;;;;12.77;4.70;;;;;;;23.46;58.31;100555.09;5062513;28;20397;-68
2023/07/01 02:59:39;;;;;;;7.18;4.47;;;;;;;25.08;52.94;100550.69;5087526;28;20140;-68
2023/07/01 03:02:06;;;;;;;11.88;4.53;;;;;;;23.54;58.69;100552.75;5051863;28;20038;-68
2023/07/01 03:04:34;;;;;;;7.72;5.22;;;;;;;23.51;58.60;100547.63;5070883;28;20024;-68
2023/07/01 03:07:00;;;;;;;9.27;5.50;;;;;;;23.70;58.89;100536.53;5070895;28;20035;-68
2023/07/01 03:09:27;;;;;;;5.50;4.55;;;;;;;23.16;61.41;100545.59;5069594;28;20438;-68
2023/07/01 03:11:53;;;;;;;7.13;5.22;;;;;;;24.09;59.57;100536.53;5069769;28;20041;-67
2023/07/01 03:14:19;;;;;;;5.72;4.75;;;;;;;23.48;59.38;100537.19;5062391;28;20028;-67
2023/07/01 03:16:44;;;;;;;8.27;5.40;;;;;;;23.36;64.80;100538.03;5051074;28;20036;-67
2023/07/01 03:19:10;;;;;;;5.20;4.70;;;;;;;23.95;60.90;100534.00;5051244;28;20028;-67
2023/07/01 03:21:36;;;;;;;9.68;4.88;;;;;;;23.82;61.64;100524.16;5051066;28;20138;-67
2023/07/01 03:24:02;;;;;;;9.07;5.50;;;;;;;23.53;61.64;100527.06;5050508;28;20134;-68
2023/07/01 03:26:27;;;;;;;5.93;5.32;;;;;;;23.52;63.83;100522.69;5069923;28;20031;-67
2023/07/01 03:28:53;;;;;;;8.52;5.22;;;;;;;23.41;64.01;100509.25;5066411;28;20038;-67
2023/07/01 03:31:22;;;;;;;10.13;5.80;;;;;;;24.03;60.42;100505.78;5067203;28;20036;-67
2023/07/01 03:33:48;;;;;;;8.82;5.50;;;;;;;24.50;60.04;100511.28;5050350;28;20073;-68
2023/07/01 03:36:14;;;;;;;6.60;5.05;;;;;;;23.57;62.74;100500.16;5060023;28;20057;-67
2023/07/01 03:38:40;;;;;;;11.00;5.75;;;;;;;23.91;62.37;100500.50;5071740;28;20681;-68
2023/07/01 03:41:09;;;;;;;5.82;5.00;;;;;;;24.49;60.72;100500.72;5087746;28;20123;-67
2023/07/01 03:43:34;;;;;;;7.38;5.28;;;;;;;24.12;63.42;100504.25;5085949;28;20506;-67
2023/07/01 03:46:00;;;;;;;6.65;5.10;;;;;;;23.83;63.20;100496.50;5070071;28;20023;-68
2023/07/01 03:48:25;;;;;;;7.80;5.00;;;;;;;24.04;64.19;100495.97;5070841;28;20059;-67
2023/07/01 03:50:51;;;;;;;7.38;4.72;;;;;;;22.92;67.36;100497.41;5071182;28;20023;-67
2023/07/01 03:53:16;;;;;;;6.72;5.22;;;;;;;23.42;66.43;100489.59;5088436;28;20465;-67
2023/07/01 03:55:42;;;;;;;7.05;5.03;;;;;;;23.21;69.00;100487.44;5076910;28;20136;-67
2023/07/01 03:58:07;;;;;;;5.93;4.63;;;;;;;24.59;62.82;100484.88;5069564;28;20050;-67
2023/07/01 04:00:33;;;;;;;8.15;4.95;;;;;;;23.40;67.68;100480.00;5070440;28;20027;-67
2023/07/01 04:03:05;;;;;;;8.35;5.40;;;;;;;24.25;63.10;100482.00;5074461;28;20355;-67
2023/07/01 04:05:34;;;;;;;7.77;5.10;;;;;;;23.82;65.09;100476.13;5070896;28;20151;-67
2023/07/01 04:08:00;;;;;;;7.43;5.38;;;;;;;23.13;67.69;100476.47;5054953;28;20274;-67
2023/07/01 04:10:25;;;;;;;7.72;4.93;;;;;;;23.23;67.64;100473.19;5081830;28;20608;-67
2023/07/01 04:12:50;;;;;;;9.57;5.22;;;;;;;23.31;71.46;100465.50;5073507;28;20522;-67
2023/07/01 04:15:16;;;;;;;8.20;5.00;;;;;;;23.03;73.33;100472.69;5081436;28;20028;-66
2023/07/01 04:17:44;;;;;;;6.95;4.55;;;;;;;22.68;75.05;100462.59;5068864;28;20031;-67
2023/07/01 04:20:11;;;;;;;7.15;4.50;;;;;;;23.76;70.20;100460.56;5073401;28;20055;-68
2023/07/01 04:22:37;;;;;;;5.75;4.40;;;;;;;23.72;70.00;100459.06;5093418;28;20051;-67
2023/07/01 04:25:03;;;;;;;6.13;4.53;;;;;;;24.59;65.65;100453.66;5072199;28;20104;-68
2023/07/01 04:27:29;;;;;;;6.90;4.63;;;;;;;24.87;64.36;100457.78;5066850;28;20023;-67
2023/07/01 04:29:54;;;;;;;6.05;4.53;;;;;;;25.01;63.60;100459.41;5078177;28;20038;-68
2023/07/01 04:32:20;;;;;;;5.50;4.45;;;;;;;24.62;63.75;100458.81;5074718;28;20028;-67
2023/07/01 04:34:45;;;;;;;6.05;4.47;;;;;;;23.86;70.57;100456.28;5063373;28;20059;-67
2023/07/01 04:37:11;;;;;;;5.55;4.55;;;;;;;23.65;69.45;100452.47;5065036;28;20036;-67
2023/07/01 04:39:36;;;;;;;6.60;4.43;;;;;;;24.19;68.04;100457.50;5054062;28;20125;-67
2023/07/01 04:42:02;;;;;;;6.70;3.88;;;;;;;24.51;67.39;100448.91;5088217;28;20040;-67
2023/07/01 04:44:28;;;;;;;7.18;4.15;;;;;;;24.36;65.89;100447.38;5071058;28;20024;-67
2023/07/01 04:46:53;;;;;;;4.90;3.97;;;;;;;23.80;70.11;100435.34;5055667;28;20036;-67
2023/07/01 04:49:19;;;;;;;7.35;3.92;;;;;;;23.46;73.31;100443.09;5074630;28;20055;-67
2023/07/01 04:51:44;;;;;;;5.35;4.30;;;;;;;23.87;71.62;100441.94;5092078;28;20024;-67
2023/07/01 04:54:09;;;;;;;5.95;4.05;;;;;;;23.85;69.80;100441.22;5088089;28;20028;-67
2023/07/01 04:56:36;;;;;;;7.32;3.90;;;;;;;22.92;74.29;100449.44;5087977;28;20040;-68
2023/07/01 04:59:01;;;;;;;5.45;3.90;;;;;;;23.79;69.83;100446.97;5063423;28;20085;-68
2023/07/01 05:01:27;;;;;;;5.10;4.00;;;;;;;24.35;66.50;100440.31;5054301;28;20024;-68
2023/07/01 05:03:52;;;;;;;5.32;3.80;;;;;;;23.76;69.15;100439.22;5053905;28;20484;-68
2023/07/01 05:06:18;;;;;;;4.78;4.00;;;;;;;23.87;68.55;100441.94;5052884;28;20557;-67
2023/07/01 05:08:44;;;;;;;3.97;3.58;;;;;;;24.34;64.20;100428.78;5054528;28;20024;-67
2023/07/01 05:11:10;;;;;;;4.50;3.25;;;;;;;25.00;64.27;100430.97;5064145;28;20149;-68
2023/07/01 05:13:35;;;;;;;3.78;3.40;;;;;;;23.30;70.69;100426.47;5069566;28;20052;-67
2023/07/01 05:16:01;;;;;;;5.85;3.10;;;;;;;24.84;63.59;100425.97;5072961;28;20035;-67
2023/07/01 05:18:26;;;;;;;6.90;3.85;;;;;;;24.56;64.36;100430.72;5074461;28;20093;-67
2023/07/01 05:20:52;;;;;;;3.88;3.47;;;;;;;23.94;67.01;100437.06;5071546;28;20024;-68
2023/07/01 05:23:17;;;;;;;5.63;3.70;;;;;;;24.18;69.08;100423.75;5056383;28;20024;-70
2023/07/01 05:25:42;;;;;;;5.00;3.55;;;;;;;24.25;68.92;100431.28;5055300;28;20040;-67
2023/07/01 05:28:08;;;;;;;4.88;3.20;;;;;;;23.71;69.35;100420.88;5060942;28;20032;-67
2023/07/01 05:30:33;;;;;;;5.63;3.53;;;;;;;24.67;65.08;100418.38;5057293;28;20055;-68
2023/07/01 05:32:59;;;;;;;3.97;3.15;;;;;;;23.06;74.08;100424.50;5061753;28;20028;-67
2023/07/01 05:35:24;;;;;;;4.38;3.30;;;;;;;23.98;68.14;100421.69;5059072;28;20024;-68
2023/07/01 05:37:51;;;;;;;4.63;3.10;;;;;;;24.28;69.49;100421.22;5055146;28;20028;-67
2023/07/01 05:40:17;;;;;;;5.15;3.35;;;;;;;23.81;68.78;100420.19;5062290;28;20093;-67
2023/07/01 05:42:43;;;;;;;3.95;3.10;;;;;;;24.34;67.63;100420.75;5053179;28;20464;-68
2023/07/01 05:45:09;;;;;;;4.53;3.25;;;;;;;23.23;74.11;100420.69;5054381;28;20032;-68
2023/07/01 05:47:35;;;;;;;4.25;2.85;;;;;;;24.44;68.52;100420.09;5091105;28;20027;-68
2023/07/01 05:50:00;;;;;;;3.55;2.63;;;;;;;24.26;67.08;100419.63;5066495;28;20036;-68
2023/07/01 05:52:25;;;;;;;4.20;2.60;;;;;;;24.37;67.25;100422.34;5076960;28;20037;-68
2023/07/01 05:54:51;;;;;;;2.88;2.50;;;;;;;24.81;65.55;100415.53;5067658;28;20442;-68
2023/07/01 05:57:18;;;;;;;3.85;3.00;;;;;;;25.13;65.28;100420.19;5073438;28;20055;-68
2023/07/01 05:59:43;;;;;;;3.28;2.30;;;;;;;25.42;63.08;100417.09;5088733;28;20031;-68
2023/07/01 06:02:09;;;;;;;4.10;2.60;;;;;;;25.17;62.07;100424.31;5068632;28;20035;-68
2023/07/01 06:04:34;;;;;;;3.28;2.30;;;;;;;24.71;66.91;100419.84;5085806;28;20107;-69
2023/07/01 06:07:00;;;;;;;3.08;2.55;;;;;;;25.15;63.19;100418.22;5070450;28;20040;-69
2023/07/01 06:09:25;;;;;;;2.78;2.10;;;;;;;24.04;71.36;100413.22;5052527;28;20456;-69
2023/07/01 06:11:52;;;;;;;3.22;2.55;;;;;;;25.35;61.29;100419.38;5060526;28;20024;-70
2023/07/01 06:14:18;;;;;;;5.30;2.58;;;;;;;24.26;68.24;100414.31;5052448;28;20032;-71
2023/07/01 06:16:43;;;;;;;4.07;2.83;;;;;;;25.35;62.50;100407.84;5053643;28;20404;-70
2023/07/01 06:19:09;;;;;;;4.32;2.75;;;;;;;24.45;66.03;100411.94;5053327;28;20090;-70
2023/07/01 06:21:34;;;;;;;3.35;3.00;;;;;;;24.63;68.12;100415.06;5091113;28;20020;-70
2023/07/01 06:24:00;;;;;;;3.72;3.10;;;;;;;23.75;72.90;100421.47;5073171;28;20124;-70
2023/07/01 06:26:25;;;;;;;3.05;2.75;;;;;;;24.34;69.65;100418.09;5070164;28;20480;-70
2023/07/01 06:28:50;;;;;;;3.10;2.33;;;;;;;24.30;70.09;100421.13;5060497;28;20062;-70
2023/07/01 06:31:16;;;;;;;3.50;2.67;;;;;;;24.92;68.38;100421.84;5086284;28;20028;-70
2023/07/01 06:33:41;;;;;;;3.72;3.03;;;;;;;24.15;71.99;100413.28;5073043;28;20115;-70
2023/07/01 06:36:07;;;;;;;3.65;2.80;;;;;;;24.12;70.15;100412.66;5067504;28;20036;-70
2023/07/01 06:38:33;;;;;;;3.25;2.80;;;;;;;24.49;69.23;100416.09;5052125;28;20031;-70
2023/07/01 06:40:59;;;;;;;3.88;2.88;;;;;;;24.41;68.18;100417.66;5060030;28;20032;-70
2023/07/01 06:43:24;;;;;;;3.92;2.53;;;;;;;25.21;66.29;100417.78;5072215;28;20066;-70
2023/07/01 06:45:49;;;;;;;4.18;2.95;;;;;;;25.18;64.59;100420.69;5070735;28;20101;-70
2023/07/01 06:48:15;;;;;;;4.72;2.85;;;;;;;23.74;76.90;100419.81;5078954;28;20056;-70
2023/07/01 06:50:40;;;;;;;2.60;2.40;;;;;;;24.25;74.44;100418.81;5075653;28;20039;-68
2023/07/01 06:53:06;;;;;;;3.47;2.42;;;;;;;25.14;67.68;100413.00;5069826;28;20035;-69
2023/07/01 06:55:31;;;;;;;3.00;2.38;;;;;;;25.14;67.82;100411.22;5053789;28;20025;-68
2023/07/01 06:57:57;;;;;;;2.65;2.10;;;;;;;24.70;69.00;100411.00;5068858;28;20036;-70
2023/07/01 07:00:22;;;;;;;3.63;2.22;;;;;;;24.74;70.64;100403.56;5054143;28;20032;-68
2023/07/01 07:02:48;;;;;;;2.63;2.20;;;;;;;25.71;66.16;100408.53;5057527;28;20077;-68
2023/07/01 07:05:13;;;;;;;2.78;2.13;;;;;;;24.92;68.83;100405.81;5050873;28;20476;-69
2023/07/01 07:07:39;;;;;;;2.63;1.73;;;;;;;25.09;67.36;100408.03;5052141;28;20037;-68
2023/07/01 07:10:05;;;;;;;3.47;2.08;;;;;;;24.30;71.59;100399.75;5051537;28;20032;-70
2023/07/01 07:12:30;;;;;;;1.88;1.70;;;;;;;24.42;71.45;100414.03;5059737;28;20796;-70
2023/07/01 07:14:58;;;;;;;3.05;2.08;;;;;;;24.35;71.67;100403.78;5064121;28;20028;-70
2023/07/01 07:17:24;;;;;;;2.05;1.67;;;;;;;26.90;58.96;100388.91;5052160;28;20085;-70
2023/07/01 07:19:49;;;;;;;2.03;1.80;;;;;;;25.67;64.87;100404.41;5047933;28;20426;-69
2023/07/01 07:22:15;;;;;;;2.45;1.67;;;;;;;24.98;65.88;100405.34;5049656;28;20037;-70
2023/07/01 07:24:40;;;;;;;1.30;1.20;;;;;;;25.17;66.10;100394.91;5051914;28;20123;-69
2023/07/01 07:27:06;;;;;;;2.20;1.73;;;;;;;27.04;58.69;100389.53;5057785;28;20065;-70
2023/07/01 07:29:33;;;;;;;1.27;1.10;;;;;;;24.46;70.83;100399.47;5089174;28;20518;-70
2023/07/01 07:31:58;;;;;;;3.55;0.93;;;;;;;25.28;70.04;100385.19;5069327;28;20035;-70
2023/07/01 07:34:24;;;;;;;0.90;0.90;;;;;;;25.01;69.63;100397.09;5070575;28;20032;-69
2023/07/01 07:36:49;;;;;;;0.93;0.82;;;;;;;24.43;73.15;100394.34;5062340;28;20131;-70
2023/07/01 07:39:15;;;;;;;1.02;0.90;;;;;;;24.88;68.53;100387.34;5051882;28;20032;-70
2023/07/01 07:41:42;;;;;;;1.10;0.90;;;;;;;24.58;71.15;100393.19;4990500;28;20040;-69
2023/07/01 07:44:07;;;;;;;0.70;0.70;;;;;;;25.14;67.47;100389.81;5043972;28;20349;-69
2023/07/01 07:46:34;;;;;;;0.55;0.55;;;;;;;25.36;67.65;100388.13;5074344;28;20028;-70
2023/07/01 07:48:59;;;;;;;0.77;0.73;;;;;;;25.51;66.55;100381.56;5067364;28;20467;-70
2023/07/01 07:51:25;;;;;;;1.27;1.17;;;;;;;25.95;65.11;100386.09;5084888;28;20547;-70
2023/07/01 07:53:51;;;;;;;1.30;1.20;;;;;;;26.58;60.50;100386.25;5057951;28;20161;-70
2023/07/01 07:56:16;;;;;;;0.75;0.75;;;;;;;26.66;60.61;100389.13;5070349;28;20035;-70
2023/07/01 07:58:42;;;;;;;1.73;0.90;;;;;;;26.46;61.26;100388.16;5051370;28;20097;-70
2023/07/01 08:01:07;;;;;;;0.77;0.65;;;;;;;26.38;63.32;100396.81;5054398;28;20115;-70
2023/07/01 08:03:32;;;;;;;1.20;0.90;;;;;;;26.66;60.44;100388.28;5074308;28;20437;-70
2023/07/01 08:05:58;;;;;;;1.23;1.00;;;;;;;27.33;58.75;100386.16;5080859;28;20423;-70
2023/07/01 08:08:23;;;;;;;1.38;1.00;;;;;;;26.76;59.53;100383.84;5070879;28;20122;-69
2023/07/01 08:10:48;;;;;;;0.93;0.82;;;;;;;26.82;59.89;100377.97;5071216;28;20036;-70
2023/07/01 08:13:14;;;;;;;0.90;0.90;;;;;;;26.13;64.46;100390.00;5052678;28;20510;-70
2023/07/01 08:15:43;;;;;;;0.75;0.70;;;;;;;25.71;68.16;100392.50;5051388;28;20032;-70
2023/07/01 08:18:09;;;;;;;1.23;1.00;;;;;;;26.58;63.17;100387.13;5078271;28;20107;-69
2023/07/01 08:20:34;;;;;;;1.15;1.05;;;;;;;26.54;63.54;100390.16;5061391;28;20036;-70
2023/07/01 08:23:00;;;;;;;1.40;1.30;;;;;;;25.18;69.42;100385.94;5070688;28;20085;-70
2023/07/01 08:25:28;;;;;;;0.85;0.85;;;;;;;26.18;66.54;100378.88;5063418;28;20024;-70
2023/07/01 08:27:53;;;;;;;1.15;1.05;;;;;;;26.01;67.65;100383.78;5088442;28;20056;-69
2023/07/01 08:30:19;;;;;;;1.05;0.98;;;;;;;26.14;65.22;100378.28;5070919;28;20067;-70
2023/07/01 08:32:44;;;;;;;1.13;1.10;;;;;;;26.52;64.70;100382.25;5071579;28;20464;-70
2023/07/01 08:35:10;;;;;;;4.72;1.23;;;;;;;26.95;60.48;100376.94;5079577;28;20596;-70
2023/07/01 08:37:35;;;;;;;1.45;1.35;;;;;;;25.82;65.52;100384.44;5065468;28;20028;-70
2023/07/01 08:40:01;;;;;;;1.90;1.50;;;;;;;25.82;66.47;100387.09;5054719;28;20115;-70
2023/07/01 08:42:35;;;;;;;1.55;1.45;;;;;;;27.28;60.16;100380.34;5084257;28;20027;-70
2023/07/01 08:45:02;;;;;;;1.77;1.67;;;;;;;27.03;61.94;100379.78;5067165;28;20047;-71
2023/07/01 08:47:28;;;;;;;2.20;1.20;;;;;;;26.47;63.53;100389.81;5071604;28;20086;-71
2023/07/01 08:49:56;;;;;;;1.77;1.30;;;;;;;27.37;60.06;100372.34;5068205;28;20027;-71
2023/07/01 08:52:24;;;;;;;1.63;1.52;;;;;;;28.10;56.63;100379.31;5074545;28;20039;-71
2023/07/01 08:54:50;;;;;;;1.55;1.40;;;;;;;27.98;57.41;100380.41;5067034;28;20162;-72
2023/07/01 08:57:15;;;;;;;1.80;1.45;;;;;;;26.96;62.41;100384.00;5058278;28;20131;-71
2023/07/01 08:59:47;;;;;;;1.23;1.13;;;;;;;28.09;57.86;100383.00;5073127;28;20036;-72
2023/07/01 09:02:13;;;;;;;1.90;1.20;;;;;;;26.87;61.72;100383.81;5074164;28;20039;-71
2023/07/01 09:04:38;;;;;;;1.17;1.08;;;;;;;27.48;61.50;100376.78;5071719;28;20403;-72
2023/07/01 09:07:05;;;;;;;0.98;0.90;;;;;;;27.84;58.15;100379.81;5071279;28;20024;-71
2023/07/01 09:09:30;;;;;;;1.40;1.30;;;;;;;26.32;66.07;100386.59;5074764;28;20036;-71
2023/07/01 09:11:56;;;;;;;1.00;1.00;;;;;;;27.01;63.58;100379.06;5067222;28;20078;-71
2023/07/01 09:14:22;;;;;;;1.10;1.00;;;;;;;27.65;60.36;100385.16;5083895;28;20028;-71
2023/07/01 09:16:48;;;;;;;2.38;0.73;;;;;;;26.30;63.79;100393.09;5067428;28;20028;-70
2023/07/01 09:19:16;;;;;;;1.25;0.77;;;;;;;27.95;57.18;100381.53;5069082;28;20085;-70
2023/07/01 09:21:42;;;;;;;0.80;0.80;;;;;;;26.97;62.68;100388.34;5074278;28;20040;-70
2023/07/01 09:24:10;;;;;;;1.30;1.20;;;;;;;27.30;59.88;100386.41;5066736;28;20058;-70
2023/07/01 09:26:36;;;;;;;1.67;1.20;;;;;;;26.56;62.42;100393.59;5079630;28;20098;-70
2023/07/01 09:29:09;;;;;;;1.58;1.25;;;;;;;26.64;63.78;100387.56;5073987;28;20051;-70
2023/07/01 09:32:04;;;;;;;2.13;1.50;;;;;;;26.01;67.29;100393.66;5090324;28;20027;-70
2023/07/01 09:34:52;;;;;;;3.35;1.80;;;;;;;25.69;68.61;100395.28;5055628;28;20035;-70
2023/07/01 09:37:18;;;;;;;3.25;1.98;;;;;;;25.65;70.04;100392.97;5060484;28;20060;-71
2023/07/01 09:39:43;;;;;;;2.97;2.53;;;;;;;25.82;67.52;100394.31;5055426;28;20052;-70
2023/07/01 09:42:09;;;;;;;3.42;2.72;;;;;;;26.72;65.88;100385.09;5081302;28;20530;-71
2023/07/01 09:44:35;;;;;;;4.05;2.83;;;;;;;26.27;63.97;100393.31;5102200;28;20023;-72
2023/07/01 09:47:00;;;;;;;4.03;3.33;;;;;;;26.06;66.58;100391.44;5061562;28;20021;-71
2023/07/01 09:49:38;;;;;;;4.55;3.47;;;;;;;26.29;68.30;100391.38;5061769;28;20027;-71
2023/07/01 09:52:04;;;;;;;6.75;4.53;;;;;;;25.18;72.57;100390.41;5091626;28;20030;-69
2023/07/01 09:54:30;;;;;;;5.80;3.97;;;;;;;26.11;68.42;100389.25;5069226;28;20309;-69
2023/07/01 09:56:58;;;;;;;6.43;4.90;;;;;;;27.77;60.52;100384.03;5081799;28;20177;-69
2023/07/01 09:59:24;;;;;;;7.57;4.13;;;;;;;26.94;64.00;100383.25;5059244;28;20441;-69
2023/07/01 10:01:55;;;;;;;5.45;3.90;;;;;;;26.79;62.67;100393.47;5062217;28;20067;-70
2023/07/01 10:04:29;;;;;;;5.38;3.80;;;;;;;28.50;56.36;100380.16;5069787;28;20062;-70
2023/07/01 10:06:55;;;;;;;6.60;4.03;;;;;;;26.47;64.68;100384.47;5059849;28;20098;-71
2023/07/01 10:09:23;;;;;;;5.32;3.83;;;;;;;27.02;62.71;100386.13;5059303;28;20028;-70
2023/07/01 10:11:52;;;;;;;7.65;4.95;;;;;;;26.97;62.29;100381.19;5073184;28;20107;-70
2023/07/01 10:14:21;;;;;;;7.65;4.60;;;;;;;25.96;67.84;100387.81;5071889;28;20043;-71
2023/07/01 10:16:49;;;;;;;5.65;4.50;;;;;;;26.50;67.17;100400.31;5068043;28;20031;-70
2023/07/01 10:19:27;;;;;;;10.05;4.50;;;;;;;26.53;64.73;100399.19;5064344;28;20012;-70
2023/07/01 10:22:13;;;;;;;9.63;4.70;;;;;;;28.63;56.26;100391.47;5065632;28;20043;-70
2023/07/01 10:24:39;;;;;;;4.45;4.03;;;;;;;26.75;62.51;100392.91;5076596;28;20062;-70
2023/07/01 10:27:05;;;;;;;7.28;4.53;;;;;;;25.08;70.91;100395.63;5087184;28;20024;-70
2023/07/01 10:29:31;;;;;;;5.15;4.28;;;;;;;26.83;63.33;100406.50;5064885;28;20031;-70
2023/07/01 10:32:09;;;;;;;5.53;3.78;;;;;;;26.56;62.39;100398.94;5081380;28;20052;-70
2023/07/01 10:34:56;;;;;;;7.10;3.65;;;;;;;26.22;64.31;100401.75;5068694;28;20066;-70
2023/07/01 10:37:24;;;;;;;7.30;3.55;;;;;;;27.39;59.27;100399.88;5051867;28;20028;-69
2023/07/01 10:39:50;;;;;;;7.20;4.70;;;;;;;27.38;60.48;100397.34;5072058;28;20043;-69
2023/07/01 10:42:32;;;;;;;5.22;4.25;;;;;;;28.58;54.10;100408.03;5072804;28;20020;-70
2023/07/01 10:45:10;;;;;;;6.57;4.40;;;;;;;25.30;67.53;100410.84;5069199;28;20401;-70
2023/07/01 10:47:35;;;;;;;7.38;4.72;;;;;;;27.63;58.29;100404.09;5071896;28;20573;-69
2023/07/01 10:50:06;;;;;;;8.23;4.75;;;;;;;25.80;66.16;100407.81;5071384;28;20107;-69
2023/07/01 10:55:44;;;;;;;6.53;4.18;;;;;;;26.44;62.34;100406.16;5084492;28;20123;-70
2023/07/01 10:58:23;;;;;;;10.65;4.70;;;;;;;27.61;57.73;100399.84;5050685;28;20480;-70
2023/07/01 11:00:51;;;;;;;6.32;4.28;;;;;;;26.89;59.98;100399.75;5069466;28;20024;-70
2023/07/01 11:03:35;;;;;;;7.18;4.78;;;;;;;28.15;56.80;100403.94;5052463;28;20028;-70
2023/07/01 11:06:01;;;;;;;7.60;4.45;;;;;;;28.11;55.20;100402.50;5050847;28;20491;-69
2023/07/01 11:08:27;;;;;;;8.15;5.00;;;;;;;27.80;55.64;100405.25;5073689;28;20069;-70
2023/07/01 11:10:53;;;;;;;10.88;5.50;;;;;;;28.09;55.02;100405.31;5071264;28;20460;-69
2023/07/01 11:13:19;;;;;;;10.90;5.10;;;;;;;28.27;53.56;100404.63;5082940;28;20038;-69
2023/07/01 11:16:05;;;;;;;8.57;4.60;;;;;;;27.83;55.08;100401.44;5057565;28;20028;-69
2023/07/01 11:18:46;;;;;;;8.23;3.80;;;;;;;28.03;55.95;100395.16;5050182;28;20111;-69
2023/07/01 11:21:22;;;;;;;5.38;4.05;;;;;;;27.07;57.77;100400.00;5051040;28;20028;-68
2023/07/01 11:24:07;;;;;;;6.68;4.10;;;;;;;26.54;62.50;100412.47;5051236;28;20017;-69
2023/07/01 11:26:39;;;;;;;6.82;3.85;;;;;;;25.90;65.84;100414.09;5055833;28;20032;-70